sensor_id;sensor_type;location;lat;lon;timestamp;P1;durP1;ratioP1;P2;durP2;ratioP2
57067;SDS011;43391;47.448;18.904;2023-07-16T00:00:00;16.08;;;14.35;;
57067;SDS011;43391;47.448;18.904;2023-07-16T00:02:25;15.75;;;14.00;;
57067;SDS011;43391;47.448;18.904;2023-07-16T00:04:51;15.98;;;14.38;;
57067;SDS011;43391;47.448;18.904;2023-07-16T00:07:17;17.27;;;14.32;;
57067;SDS011;43391;47.448;18.904;2023-07-16T00:09:43;16.13;;;14.52;;
57067;SDS011;43391;47.448;18.904;2023-07-16T00:12:09;17.00;;;13.63;;
57067;SDS011;43391;47.448;18.904;2023-07-16T00:14:35;17.58;;;14.60;;
57067;SDS011;43391;47.448;18.904;2023-07-16T00:17:00;17.67;;;15.75;;
57067;SDS011;43391;47.448;18.904;2023-07-16T00:19:25;17.70;;;14.18;;
57067;SDS011;43391;47.448;18.904;2023-07-16T00:21:51;15.93;;;14.20;;
57067;SDS011;43391;47.448;18.904;2023-07-16T00:24:16;16.95;;;14.13;;
57067;SDS011;43391;47.448;18.904;2023-07-16T00:26:41;16.88;;;14.68;;
57067;SDS011;43391;47.448;18.904;2023-07-16T00:29:07;15.82;;;14.32;;
57067;SDS011;43391;47.448;18.904;2023-07-16T00:31:32;15.90;;;14.23;;
57067;SDS011;43391;47.448;18.904;2023-07-16T00:33:58;15.88;;;14.23;;
57067;SDS011;43391;47.448;18.904;2023-07-16T00:36:23;16.60;;;14.90;;
57067;SDS011;43391;47.448;18.904;2023-07-16T00:38:48;15.85;;;14.25;;
57067;SDS011;43391;47.448;18.904;2023-07-16T00:41:15;16.42;;;14.35;;
57067;SDS011;43391;47.448;18.904;2023-07-16T00:43:40;19.05;;;14.65;;
57067;SDS011;43391;47.448;18.904;2023-07-16T00:46:06;18.80;;;14.77;;
57067;SDS011;43391;47.448;18.904;2023-07-16T00:48:32;16.02;;;14.30;;
57067;SDS011;43391;47.448;18.904;2023-07-16T00:50:58;20.30;;;14.80;;
57067;SDS011;43391;47.448;18.904;2023-07-16T00:53:26;17.95;;;15.18;;
57067;SDS011;43391;47.448;18.904;2023-07-16T00:55:52;19.95;;;14.30;;
57067;SDS011;43391;47.448;18.904;2023-07-16T00:58:17;18.02;;;15.18;;
57067;SDS011;43391;47.448;18.904;2023-07-16T01:00:42;16.27;;;14.20;;
57067;SDS011;43391;47.448;18.904;2023-07-16T01:03:11;16.13;;;14.48;;
57067;SDS011;43391;47.448;18.904;2023-07-16T01:05:42;15.77;;;14.15;;
57067;SDS011;43391;47.448;18.904;2023-07-16T01:08:14;16.83;;;15.13;;
57067;SDS011;43391;47.448;18.904;2023-07-16T01:10:45;16.17;;;14.38;;
57067;SDS011;43391;47.448;18.904;2023-07-16T01:13:11;15.80;;;14.30;;
57067;SDS011;43391;47.448;18.904;2023-07-16T01:15:37;16.48;;;14.75;;
57067;SDS011;43391;47.448;18.904;2023-07-16T01:18:03;15.82;;;13.90;;
57067;SDS011;43391;47.448;18.904;2023-07-16T01:20:30;15.90;;;14.30;;
57067;SDS011;43391;47.448;18.904;2023-07-16T01:28:16;16.35;;;14.13;;
57067;SDS011;43391;47.448;18.904;2023-07-16T01:30:51;17.92;;;14.15;;
57067;SDS011;43391;47.448;18.904;2023-07-16T01:33:19;16.10;;;14.50;;
57067;SDS011;43391;47.448;18.904;2023-07-16T01:35:45;15.80;;;14.30;;
57067;SDS011;43391;47.448;18.904;2023-07-16T01:38:12;17.73;;;15.50;;
57067;SDS011;43391;47.448;18.904;2023-07-16T01:40:37;17.02;;;15.32;;
57067;SDS011;43391;47.448;18.904;2023-07-16T01:43:03;17.05;;;13.50;;
57067;SDS011;43391;47.448;18.904;2023-07-16T01:45:29;16.40;;;14.27;;
57067;SDS011;43391;47.448;18.904;2023-07-16T01:48:29;17.33;;;14.77;;
57067;SDS011;43391;47.448;18.904;2023-07-16T01:50:56;16.25;;;14.65;;
57067;SDS011;43391;47.448;18.904;2023-07-16T01:53:21;15.35;;;13.75;;
57067;SDS011;43391;47.448;18.904;2023-07-16T01:55:47;17.27;;;15.57;;
57067;SDS011;43391;47.448;18.904;2023-07-16T01:58:12;18.52;;;15.70;;
57067;SDS011;43391;47.448;18.904;2023-07-16T02:00:38;15.82;;;14.20;;
57067;SDS011;43391;47.448;18.904;2023-07-16T02:03:03;16.90;;;15.20;;
57067;SDS011;43391;47.448;18.904;2023-07-16T02:05:29;15.95;;;14.35;;
57067;SDS011;43391;47.448;18.904;2023-07-16T02:07:54;16.00;;;14.40;;
57067;SDS011;43391;47.448;18.904;2023-07-16T02:10:19;16.10;;;14.50;;
57067;SDS011;43391;47.448;18.904;2023-07-16T02:12:45;15.57;;;13.85;;
57067;SDS011;43391;47.448;18.904;2023-07-16T02:15:11;16.08;;;14.40;;
57067;SDS011;43391;47.448;18.904;2023-07-16T02:17:36;15.05;;;13.52;;
57067;SDS011;43391;47.448;18.904;2023-07-16T02:20:01;16.15;;;14.10;;
57067;SDS011;43391;47.448;18.904;2023-07-16T02:22:30;17.00;;;14.80;;
57067;SDS011;43391;47.448;18.904;2023-07-16T02:24:55;16.27;;;14.15;;
57067;SDS011;43391;47.448;18.904;2023-07-16T02:27:21;16.35;;;14.65;;
57067;SDS011;43391;47.448;18.904;2023-07-16T02:29:46;16.67;;;14.70;;
57067;SDS011;43391;47.448;18.904;2023-07-16T02:32:11;17.67;;;14.65;;
57067;SDS011;43391;47.448;18.904;2023-07-16T02:34:37;15.30;;;13.77;;
57067;SDS011;43391;47.448;18.904;2023-07-16T02:37:02;15.80;;;13.75;;
57067;SDS011;43391;47.448;18.904;2023-07-16T02:39:28;15.00;;;13.50;;
57067;SDS011;43391;47.448;18.904;2023-07-16T02:41:53;18.15;;;13.85;;
57067;SDS011;43391;47.448;18.904;2023-07-16T02:44:18;20.77;;;14.70;;
57067;SDS011;43391;47.448;18.904;2023-07-16T02:46:44;15.90;;;14.23;;
57067;SDS011;43391;47.448;18.904;2023-07-16T02:49:09;17.58;;;13.63;;
57067;SDS011;43391;47.448;18.904;2023-07-16T02:51:35;16.88;;;14.95;;
57067;SDS011;43391;47.448;18.904;2023-07-16T02:54:00;14.27;;;12.85;;
57067;SDS011;43391;47.448;18.904;2023-07-16T02:56:25;16.63;;;13.88;;
57067;SDS011;43391;47.448;18.904;2023-07-16T02:58:51;15.45;;;13.70;;
57067;SDS011;43391;47.448;18.904;2023-07-16T03:01:16;17.38;;;14.60;;
57067;SDS011;43391;47.448;18.904;2023-07-16T03:03:41;15.52;;;13.73;;
57067;SDS011;43391;47.448;18.904;2023-07-16T03:06:07;15.00;;;13.48;;
57067;SDS011;43391;47.448;18.904;2023-07-16T03:08:33;15.02;;;13.63;;
57067;SDS011;43391;47.448;18.904;2023-07-16T03:10:59;14.77;;;13.25;;
57067;SDS011;43391;47.448;18.904;2023-07-16T03:13:24;16.10;;;13.75;;
57067;SDS011;43391;47.448;18.904;2023-07-16T03:15:49;15.48;;;13.45;;
57067;SDS011;43391;47.448;18.904;2023-07-16T03:18:17;17.55;;;14.32;;
57067;SDS011;43391;47.448;18.904;2023-07-16T03:20:43;15.75;;;14.13;;
57067;SDS011;43391;47.448;18.904;2023-07-16T03:23:08;15.65;;;13.68;;
57067;SDS011;43391;47.448;18.904;2023-07-16T03:25:34;15.88;;;14.18;;
57067;SDS011;43391;47.448;18.904;2023-07-16T03:27:59;14.65;;;13.25;;
57067;SDS011;43391;47.448;18.904;2023-07-16T03:30:25;18.27;;;13.80;;
57067;SDS011;43391;47.448;18.904;2023-07-16T03:32:50;16.40;;;13.88;;
57067;SDS011;43391;47.448;18.904;2023-07-16T03:35:15;16.85;;;14.45;;
57067;SDS011;43391;47.448;18.904;2023-07-16T03:37:41;14.95;;;13.55;;
57067;SDS011;43391;47.448;18.904;2023-07-16T03:40:16;15.63;;;13.30;;
57067;SDS011;43391;47.448;18.904;2023-07-16T03:42:42;14.43;;;13.02;;
57067;SDS011;43391;47.448;18.904;2023-07-16T03:45:09;15.90;;;14.30;;
57067;SDS011;43391;47.448;18.904;2023-07-16T03:47:35;16.45;;;14.07;;
57067;SDS011;43391;47.448;18.904;2023-07-16T03:50:00;16.55;;;13.68;;
57067;SDS011;43391;47.448;18.904;2023-07-16T03:52:26;15.32;;;13.60;;
57067;SDS011;43391;47.448;18.904;2023-07-16T03:54:51;14.98;;;13.45;;
57067;SDS011;43391;47.448;18.904;2023-07-16T03:57:17;15.48;;;13.90;;
57067;SDS011;43391;47.448;18.904;2023-07-16T03:59:42;15.70;;;13.55;;
57067;SDS011;43391;47.448;18.904;2023-07-16T04:02:08;14.95;;;13.45;;
57067;SDS011;43391;47.448;18.904;2023-07-16T04:04:33;15.63;;;14.23;;
57067;SDS011;43391;47.448;18.904;2023-07-16T04:06:59;14.77;;;13.07;;
57067;SDS011;43391;47.448;18.904;2023-07-16T04:09:24;16.20;;;14.65;;
57067;SDS011;43391;47.448;18.904;2023-07-16T04:11:49;16.17;;;13.77;;
57067;SDS011;43391;47.448;18.904;2023-07-16T04:14:15;15.93;;;14.43;;
57067;SDS011;43391;47.448;18.904;2023-07-16T04:16:40;15.65;;;13.95;;
57067;SDS011;43391;47.448;18.904;2023-07-16T04:19:05;15.32;;;13.90;;
57067;SDS011;43391;47.448;18.904;2023-07-16T04:21:32;16.80;;;15.02;;
57067;SDS011;43391;47.448;18.904;2023-07-16T04:23:57;17.45;;;15.63;;
57067;SDS011;43391;47.448;18.904;2023-07-16T04:26:23;17.58;;;14.93;;
57067;SDS011;43391;47.448;18.904;2023-07-16T04:28:48;17.80;;;15.38;;
57067;SDS011;43391;47.448;18.904;2023-07-16T04:31:13;17.88;;;14.75;;
57067;SDS011;43391;47.448;18.904;2023-07-16T04:33:39;17.52;;;14.55;;
57067;SDS011;43391;47.448;18.904;2023-07-16T04:36:04;15.65;;;13.68;;
57067;SDS011;43391;47.448;18.904;2023-07-16T04:38:30;14.88;;;13.25;;
57067;SDS011;43391;47.448;18.904;2023-07-16T04:40:55;16.10;;;12.93;;
57067;SDS011;43391;47.448;18.904;2023-07-16T04:43:20;15.65;;;12.95;;
57067;SDS011;43391;47.448;18.904;2023-07-16T04:45:46;15.23;;;12.82;;
57067;SDS011;43391;47.448;18.904;2023-07-16T04:48:12;14.90;;;12.27;;
57067;SDS011;43391;47.448;18.904;2023-07-16T04:50:38;16.77;;;12.77;;
57067;SDS011;43391;47.448;18.904;2023-07-16T04:53:03;13.38;;;12.05;;
57067;SDS011;43391;47.448;18.904;2023-07-16T04:55:29;13.98;;;11.65;;
57067;SDS011;43391;47.448;18.904;2023-07-16T04:57:54;13.52;;;12.13;;
57067;SDS011;43391;47.448;18.904;2023-07-16T05:00:21;17.33;;;11.40;;
57067;SDS011;43391;47.448;18.904;2023-07-16T05:02:47;13.68;;;12.27;;
57067;SDS011;43391;47.448;18.904;2023-07-16T05:05:13;14.95;;;11.93;;
57067;SDS011;43391;47.448;18.904;2023-07-16T05:07:38;13.27;;;11.15;;
57067;SDS011;43391;47.448;18.904;2023-07-16T05:10:04;15.32;;;10.40;;
57067;SDS011;43391;47.448;18.904;2023-07-16T05:12:29;13.02;;;11.20;;
57067;SDS011;43391;47.448;18.904;2023-07-16T05:14:55;13.13;;;10.32;;
57067;SDS011;43391;47.448;18.904;2023-07-16T05:17:20;17.27;;;10.93;;
57067;SDS011;43391;47.448;18.904;2023-07-16T05:19:45;13.02;;;10.90;;
57067;SDS011;43391;47.448;18.904;2023-07-16T05:22:11;12.85;;;10.95;;
57067;SDS011;43391;47.448;18.904;2023-07-16T05:24:36;13.45;;;10.52;;
57067;SDS011;43391;47.448;18.904;2023-07-16T05:27:02;16.55;;;11.07;;
57067;SDS011;43391;47.448;18.904;2023-07-16T05:29:27;11.88;;;10.63;;
57067;SDS011;43391;47.448;18.904;2023-07-16T05:31:53;13.48;;;10.43;;
57067;SDS011;43391;47.448;18.904;2023-07-16T05:34:18;11.82;;;9.93;;
57067;SDS011;43391;47.448;18.904;2023-07-16T05:36:43;10.85;;;9.75;;
57067;SDS011;43391;47.448;18.904;2023-07-16T05:39:11;11.32;;;10.13;;
57067;SDS011;43391;47.448;18.904;2023-07-16T05:41:38;13.68;;;10.63;;
57067;SDS011;43391;47.448;18.904;2023-07-16T05:44:04;14.00;;;9.40;;
57067;SDS011;43391;47.448;18.904;2023-07-16T05:46:30;12.95;;;10.23;;
57067;SDS011;43391;47.448;18.904;2023-07-16T05:48:55;12.57;;;10.15;;
57067;SDS011;43391;47.448;18.904;2023-07-16T05:51:20;14.10;;;10.68;;
57067;SDS011;43391;47.448;18.904;2023-07-16T05:53:46;14.55;;;9.93;;
57067;SDS011;43391;47.448;18.904;2023-07-16T05:56:11;12.18;;;9.18;;
57067;SDS011;43391;47.448;18.904;2023-07-16T05:58:37;12.35;;;9.45;;
57067;SDS011;43391;47.448;18.904;2023-07-16T06:01:02;12.05;;;9.15;;
57067;SDS011;43391;47.448;18.904;2023-07-16T06:03:27;10.45;;;8.43;;
57067;SDS011;43391;47.448;18.904;2023-07-16T06:05:53;14.10;;;9.07;;
57067;SDS011;43391;47.448;18.904;2023-07-16T06:08:18;11.27;;;7.80;;
57067;SDS011;43391;47.448;18.904;2023-07-16T06:10:44;10.63;;;9.20;;
57067;SDS011;43391;47.448;18.904;2023-07-16T06:13:10;13.60;;;9.40;;
57067;SDS011;43391;47.448;18.904;2023-07-16T06:15:36;16.52;;;8.85;;
57067;SDS011;43391;47.448;18.904;2023-07-16T06:18:01;11.73;;;9.27;;
57067;SDS011;43391;47.448;18.904;2023-07-16T06:20:27;20.77;;;8.60;;
57067;SDS011;43391;47.448;18.904;2023-07-16T06:22:53;9.77;;;8.40;;
57067;SDS011;43391;47.448;18.904;2023-07-16T06:25:19;14.40;;;8.57;;
57067;SDS011;43391;47.448;18.904;2023-07-16T06:27:44;10.57;;;8.73;;
57067;SDS011;43391;47.448;18.904;2023-07-16T06:30:10;11.30;;;8.90;;
57067;SDS011;43391;47.448;18.904;2023-07-16T06:32:35;11.85;;;8.23;;
57067;SDS011;43391;47.448;18.904;2023-07-16T06:35:00;11.27;;;8.02;;
57067;SDS011;43391;47.448;18.904;2023-07-16T06:37:26;11.25;;;8.23;;
57067;SDS011;43391;47.448;18.904;2023-07-16T06:39:51;9.07;;;8.10;;
57067;SDS011;43391;47.448;18.904;2023-07-16T06:42:16;12.38;;;8.82;;
57067;SDS011;43391;47.448;18.904;2023-07-16T06:44:42;8.27;;;7.43;;
57067;SDS011;43391;47.448;18.904;2023-07-16T06:47:07;10.10;;;7.65;;
57067;SDS011;43391;47.448;18.904;2023-07-16T06:49:33;10.15;;;8.65;;
57067;SDS011;43391;47.448;18.904;2023-07-16T06:52:00;10.93;;;8.23;;
57067;SDS011;43391;47.448;18.904;2023-07-16T06:54:27;10.70;;;7.85;;
57067;SDS011;43391;47.448;18.904;2023-07-16T06:56:52;12.40;;;8.02;;
57067;SDS011;43391;47.448;18.904;2023-07-16T06:59:18;10.30;;;7.55;;
57067;SDS011;43391;47.448;18.904;2023-07-16T07:01:43;10.25;;;7.80;;
57067;SDS011;43391;47.448;18.904;2023-07-16T07:04:09;11.48;;;8.25;;
57067;SDS011;43391;47.448;18.904;2023-07-16T07:06:34;12.43;;;7.65;;
57067;SDS011;43391;47.448;18.904;2023-07-16T07:08:59;8.73;;;7.20;;
57067;SDS011;43391;47.448;18.904;2023-07-16T07:11:25;11.65;;;8.20;;
57067;SDS011;43391;47.448;18.904;2023-07-16T07:13:51;10.07;;;8.20;;
57067;SDS011;43391;47.448;18.904;2023-07-16T07:16:17;11.65;;;8.52;;
57067;SDS011;43391;47.448;18.904;2023-07-16T07:18:42;12.60;;;7.70;;
57067;SDS011;43391;47.448;18.904;2023-07-16T07:21:08;14.40;;;10.23;;
57067;SDS011;43391;47.448;18.904;2023-07-16T07:23:33;14.45;;;7.70;;
57067;SDS011;43391;47.448;18.904;2023-07-16T07:25:59;9.98;;;7.38;;
57067;SDS011;43391;47.448;18.904;2023-07-16T07:28:24;11.27;;;7.93;;
57067;SDS011;43391;47.448;18.904;2023-07-16T07:30:50;9.80;;;8.20;;
57067;SDS011;43391;47.448;18.904;2023-07-16T07:33:16;13.45;;;7.75;;
57067;SDS011;43391;47.448;18.904;2023-07-16T07:35:41;10.77;;;7.85;;
57067;SDS011;43391;47.448;18.904;2023-07-16T07:38:06;12.35;;;7.55;;
57067;SDS011;43391;47.448;18.904;2023-07-16T07:40:32;10.10;;;6.82;;
57067;SDS011;43391;47.448;18.904;2023-07-16T07:42:57;9.15;;;7.32;;
57067;SDS011;43391;47.448;18.904;2023-07-16T07:45:23;10.90;;;7.85;;
57067;SDS011;43391;47.448;18.904;2023-07-16T07:47:49;10.77;;;7.72;;
57067;SDS011;43391;47.448;18.904;2023-07-16T07:50:14;12.70;;;6.93;;
57067;SDS011;43391;47.448;18.904;2023-07-16T07:52:40;11.07;;;6.85;;
57067;SDS011;43391;47.448;18.904;2023-07-16T07:55:05;10.20;;;6.93;;
57067;SDS011;43391;47.448;18.904;2023-07-16T07:57:31;7.80;;;7.10;;
57067;SDS011;43391;47.448;18.904;2023-07-16T07:59:56;9.82;;;6.90;;
57067;SDS011;43391;47.448;18.904;2023-07-16T08:02:23;10.60;;;6.65;;
57067;SDS011;43391;47.448;18.904;2023-07-16T08:04:54;8.18;;;6.65;;
57067;SDS011;43391;47.448;18.904;2023-07-16T08:07:20;8.55;;;6.00;;
57067;SDS011;43391;47.448;18.904;2023-07-16T08:09:49;9.68;;;7.15;;
57067;SDS011;43391;47.448;18.904;2023-07-16T08:12:14;9.85;;;6.88;;
57067;SDS011;43391;47.448;18.904;2023-07-16T08:14:40;8.77;;;6.57;;
57067;SDS011;43391;47.448;18.904;2023-07-16T08:17:06;10.25;;;5.85;;
57067;SDS011;43391;47.448;18.904;2023-07-16T08:19:33;8.82;;;6.60;;
57067;SDS011;43391;47.448;18.904;2023-07-16T08:21:58;8.40;;;6.32;;
57067;SDS011;43391;47.448;18.904;2023-07-16T08:24:24;11.52;;;6.78;;
57067;SDS011;43391;47.448;18.904;2023-07-16T08:26:50;8.02;;;6.25;;
57067;SDS011;43391;47.448;18.904;2023-07-16T08:29:15;10.98;;;7.05;;
57067;SDS011;43391;47.448;18.904;2023-07-16T08:31:41;13.55;;;7.32;;
57067;SDS011;43391;47.448;18.904;2023-07-16T08:34:06;11.38;;;6.10;;
57067;SDS011;43391;47.448;18.904;2023-07-16T08:36:35;10.70;;;6.95;;
57067;SDS011;43391;47.448;18.904;2023-07-16T08:39:02;8.52;;;7.03;;
57067;SDS011;43391;47.448;18.904;2023-07-16T08:41:28;9.05;;;6.20;;
57067;SDS011;43391;47.448;18.904;2023-07-16T08:43:53;11.35;;;7.15;;
57067;SDS011;43391;47.448;18.904;2023-07-16T08:46:19;12.15;;;7.07;;
57067;SDS011;43391;47.448;18.904;2023-07-16T08:48:45;9.25;;;7.07;;
57067;SDS011;43391;47.448;18.904;2023-07-16T08:51:11;8.00;;;6.30;;
57067;SDS011;43391;47.448;18.904;2023-07-16T08:53:39;13.38;;;7.88;;
57067;SDS011;43391;47.448;18.904;2023-07-16T08:56:05;8.85;;;6.95;;
57067;SDS011;43391;47.448;18.904;2023-07-16T08:58:31;10.38;;;7.65;;
57067;SDS011;43391;47.448;18.904;2023-07-16T09:00:56;12.52;;;7.35;;
57067;SDS011;43391;47.448;18.904;2023-07-16T09:03:22;15.05;;;7.47;;
57067;SDS011;43391;47.448;18.904;2023-07-16T09:05:47;9.32;;;7.38;;
57067;SDS011;43391;47.448;18.904;2023-07-16T09:08:13;12.60;;;7.30;;
57067;SDS011;43391;47.448;18.904;2023-07-16T09:10:40;11.18;;;7.25;;
57067;SDS011;43391;47.448;18.904;2023-07-16T09:13:06;9.93;;;7.25;;
57067;SDS011;43391;47.448;18.904;2023-07-16T09:15:31;9.38;;;7.93;;
57067;SDS011;43391;47.448;18.904;2023-07-16T09:17:59;9.93;;;7.75;;
57067;SDS011;43391;47.448;18.904;2023-07-16T09:20:25;18.23;;;8.57;;
57067;SDS011;43391;47.448;18.904;2023-07-16T09:22:53;13.27;;;7.30;;
57067;SDS011;43391;47.448;18.904;2023-07-16T09:25:20;12.15;;;8.05;;
57067;SDS011;43391;47.448;18.904;2023-07-16T09:27:50;12.90;;;8.00;;
57067;SDS011;43391;47.448;18.904;2023-07-16T09:30:15;10.20;;;7.80;;
57067;SDS011;43391;47.448;18.904;2023-07-16T09:32:41;10.27;;;7.75;;
57067;SDS011;43391;47.448;18.904;2023-07-16T09:35:09;10.60;;;7.55;;
57067;SDS011;43391;47.448;18.904;2023-07-16T09:37:36;12.52;;;8.82;;
57067;SDS011;43391;47.448;18.904;2023-07-16T09:40:03;14.25;;;8.48;;
57067;SDS011;43391;47.448;18.904;2023-07-16T09:42:31;9.65;;;8.32;;
57067;SDS011;43391;47.448;18.904;2023-07-16T09:44:59;18.67;;;15.07;;
57067;SDS011;43391;47.448;18.904;2023-07-16T09:47:26;17.63;;;9.15;;
57067;SDS011;43391;47.448;18.904;2023-07-16T09:49:51;14.30;;;9.10;;
57067;SDS011;43391;47.448;18.904;2023-07-16T09:52:17;13.60;;;8.80;;
57067;SDS011;43391;47.448;18.904;2023-07-16T09:54:43;13.02;;;9.15;;
57067;SDS011;43391;47.448;18.904;2023-07-16T09:57:11;15.68;;;8.98;;
57067;SDS011;43391;47.448;18.904;2023-07-16T09:59:39;12.23;;;9.57;;
57067;SDS011;43391;47.448;18.904;2023-07-16T10:02:06;13.13;;;8.85;;
57067;SDS011;43391;47.448;18.904;2023-07-16T10:04:38;10.50;;;8.55;;
57067;SDS011;43391;47.448;18.904;2023-07-16T10:07:05;12.23;;;8.88;;
57067;SDS011;43391;47.448;18.904;2023-07-16T10:09:34;11.30;;;9.40;;
57067;SDS011;43391;47.448;18.904;2023-07-16T10:14:45;10.65;;;9.02;;
57067;SDS011;43391;47.448;18.904;2023-07-16T10:25:05;9.07;;;7.43;;
57067;SDS011;43391;47.448;18.904;2023-07-16T10:27:34;13.27;;;8.85;;
57067;SDS011;43391;47.448;18.904;2023-07-16T10:30:00;10.48;;;8.30;;
57067;SDS011;43391;47.448;18.904;2023-07-16T10:32:28;11.88;;;8.80;;
57067;SDS011;43391;47.448;18.904;2023-07-16T10:34:54;13.93;;;8.32;;
57067;SDS011;43391;47.448;18.904;2023-07-16T10:37:20;11.50;;;7.82;;
57067;SDS011;43391;47.448;18.904;2023-07-16T10:39:49;12.90;;;7.68;;
57067;SDS011;43391;47.448;18.904;2023-07-16T10:42:16;12.35;;;8.43;;
57067;SDS011;43391;47.448;18.904;2023-07-16T10:44:42;12.95;;;8.65;;
57067;SDS011;43391;47.448;18.904;2023-07-16T10:47:08;11.38;;;8.20;;
57067;SDS011;43391;47.448;18.904;2023-07-16T10:49:35;13.43;;;8.48;;
57067;SDS011;43391;47.448;18.904;2023-07-16T10:52:01;10.95;;;8.60;;
57067;SDS011;43391;47.448;18.904;2023-07-16T10:54:27;10.70;;;8.27;;
57067;SDS011;43391;47.448;18.904;2023-07-16T10:56:52;13.13;;;8.43;;
57067;SDS011;43391;47.448;18.904;2023-07-16T10:59:18;11.48;;;8.10;;
57067;SDS011;43391;47.448;18.904;2023-07-16T11:01:43;11.60;;;8.52;;
57067;SDS011;43391;47.448;18.904;2023-07-16T11:04:09;12.55;;;8.57;;
57067;SDS011;43391;47.448;18.904;2023-07-16T11:06:34;11.00;;;8.02;;
57067;SDS011;43391;47.448;18.904;2023-07-16T11:09:06;7.95;;;7.13;;
57067;SDS011;43391;47.448;18.904;2023-07-16T11:11:34;10.13;;;7.80;;
57067;SDS011;43391;47.448;18.904;2023-07-16T11:14:00;10.70;;;7.07;;
57067;SDS011;43391;47.448;18.904;2023-07-16T11:16:27;9.32;;;7.00;;
57067;SDS011;43391;47.448;18.904;2023-07-16T11:18:58;11.02;;;7.28;;
57067;SDS011;43391;47.448;18.904;2023-07-16T11:21:23;11.30;;;7.65;;
57067;SDS011;43391;47.448;18.904;2023-07-16T11:23:49;11.45;;;6.95;;
57067;SDS011;43391;47.448;18.904;2023-07-16T11:26:14;11.15;;;6.68;;
57067;SDS011;43391;47.448;18.904;2023-07-16T11:28:40;8.10;;;7.07;;
57067;SDS011;43391;47.448;18.904;2023-07-16T11:31:10;11.88;;;7.32;;
57067;SDS011;43391;47.448;18.904;2023-07-16T11:36:10;13.60;;;7.13;;
57067;SDS011;43391;47.448;18.904;2023-07-16T11:38:36;10.13;;;6.88;;
57067;SDS011;43391;47.448;18.904;2023-07-16T11:41:02;9.23;;;7.07;;
57067;SDS011;43391;47.448;18.904;2023-07-16T11:43:28;9.85;;;7.50;;
57067;SDS011;43391;47.448;18.904;2023-07-16T11:45:53;8.48;;;6.70;;
57067;SDS011;43391;47.448;18.904;2023-07-16T11:48:18;9.93;;;7.35;;
57067;SDS011;43391;47.448;18.904;2023-07-16T11:50:44;14.73;;;7.30;;
57067;SDS011;43391;47.448;18.904;2023-07-16T11:53:10;11.00;;;7.15;;
57067;SDS011;43391;47.448;18.904;2023-07-16T11:55:36;10.48;;;6.63;;
57067;SDS011;43391;47.448;18.904;2023-07-16T11:58:02;11.23;;;6.65;;
57067;SDS011;43391;47.448;18.904;2023-07-16T12:00:28;12.80;;;6.90;;
57067;SDS011;43391;47.448;18.904;2023-07-16T12:02:54;12.25;;;6.50;;
57067;SDS011;43391;47.448;18.904;2023-07-16T12:05:19;12.50;;;6.60;;
57067;SDS011;43391;47.448;18.904;2023-07-16T12:07:46;10.13;;;7.87;;
57067;SDS011;43391;47.448;18.904;2023-07-16T12:10:11;16.08;;;8.20;;
57067;SDS011;43391;47.448;18.904;2023-07-16T12:12:37;10.75;;;7.82;;
57067;SDS011;43391;47.448;18.904;2023-07-16T12:15:03;12.32;;;7.57;;
57067;SDS011;43391;47.448;18.904;2023-07-16T12:17:32;11.38;;;6.80;;
57067;SDS011;43391;47.448;18.904;2023-07-16T12:19:57;11.32;;;7.40;;
57067;SDS011;43391;47.448;18.904;2023-07-16T12:22:23;9.85;;;7.85;;
57067;SDS011;43391;47.448;18.904;2023-07-16T12:24:49;10.38;;;8.05;;
57067;SDS011;43391;47.448;18.904;2023-07-16T12:27:14;13.15;;;8.07;;
57067;SDS011;43391;47.448;18.904;2023-07-16T12:29:43;11.43;;;7.20;;
57067;SDS011;43391;47.448;18.904;2023-07-16T12:32:08;9.00;;;7.15;;
57067;SDS011;43391;47.448;18.904;2023-07-16T12:34:34;15.25;;;9.00;;
57067;SDS011;43391;47.448;18.904;2023-07-16T12:37:00;10.80;;;7.75;;
57067;SDS011;43391;47.448;18.904;2023-07-16T12:39:25;12.95;;;8.00;;
57067;SDS011;43391;47.448;18.904;2023-07-16T12:41:50;12.68;;;8.15;;
57067;SDS011;43391;47.448;18.904;2023-07-16T12:44:16;13.40;;;7.95;;
57067;SDS011;43391;47.448;18.904;2023-07-16T12:46:41;16.17;;;8.63;;
57067;SDS011;43391;47.448;18.904;2023-07-16T12:49:06;11.80;;;8.65;;
57067;SDS011;43391;47.448;18.904;2023-07-16T12:51:32;12.73;;;8.18;;
57067;SDS011;43391;47.448;18.904;2023-07-16T12:53:57;9.85;;;8.10;;
57067;SDS011;43391;47.448;18.904;2023-07-16T12:56:23;15.60;;;8.32;;
57067;SDS011;43391;47.448;18.904;2023-07-16T12:58:48;21.52;;;8.45;;
57067;SDS011;43391;47.448;18.904;2023-07-16T13:01:14;17.65;;;8.48;;
57067;SDS011;43391;47.448;18.904;2023-07-16T13:03:39;12.98;;;7.55;;
57067;SDS011;43391;47.448;18.904;2023-07-16T13:06:05;12.77;;;9.00;;
57067;SDS011;43391;47.448;18.904;2023-07-16T13:08:31;12.02;;;8.60;;
57067;SDS011;43391;47.448;18.904;2023-07-16T13:10:57;12.38;;;9.18;;
57067;SDS011;43391;47.448;18.904;2023-07-16T13:13:22;10.93;;;8.07;;
57067;SDS011;43391;47.448;18.904;2023-07-16T13:15:47;9.90;;;7.43;;
57067;SDS011;43391;47.448;18.904;2023-07-16T13:18:13;10.55;;;7.65;;
57067;SDS011;43391;47.448;18.904;2023-07-16T13:20:39;13.43;;;8.43;;
57067;SDS011;43391;47.448;18.904;2023-07-16T13:23:05;11.38;;;7.30;;
57067;SDS011;43391;47.448;18.904;2023-07-16T13:25:30;12.05;;;8.27;;
57067;SDS011;43391;47.448;18.904;2023-07-16T13:27:56;15.60;;;7.88;;
57067;SDS011;43391;47.448;18.904;2023-07-16T13:30:22;11.30;;;7.88;;
57067;SDS011;43391;47.448;18.904;2023-07-16T13:32:48;13.77;;;9.02;;
57067;SDS011;43391;47.448;18.904;2023-07-16T13:35:14;14.95;;;9.77;;
57067;SDS011;43391;47.448;18.904;2023-07-16T13:37:41;12.30;;;8.20;;
57067;SDS011;43391;47.448;18.904;2023-07-16T13:40:07;10.93;;;8.10;;
57067;SDS011;43391;47.448;18.904;2023-07-16T13:42:33;12.05;;;7.82;;
57067;SDS011;43391;47.448;18.904;2023-07-16T13:44:59;13.27;;;8.07;;
57067;SDS011;43391;47.448;18.904;2023-07-16T13:47:25;13.50;;;8.55;;
57067;SDS011;43391;47.448;18.904;2023-07-16T13:49:51;13.57;;;8.48;;
57067;SDS011;43391;47.448;18.904;2023-07-16T13:52:17;12.70;;;7.70;;
57067;SDS011;43391;47.448;18.904;2023-07-16T13:54:42;12.85;;;7.47;;
57067;SDS011;43391;47.448;18.904;2023-07-16T13:57:08;11.07;;;8.55;;
57067;SDS011;43391;47.448;18.904;2023-07-16T13:59:35;12.60;;;8.48;;
57067;SDS011;43391;47.448;18.904;2023-07-16T14:02:01;14.38;;;9.20;;
57067;SDS011;43391;47.448;18.904;2023-07-16T14:04:28;14.00;;;8.43;;
57067;SDS011;43391;47.448;18.904;2023-07-16T14:06:54;13.57;;;7.88;;
57067;SDS011;43391;47.448;18.904;2023-07-16T14:09:21;20.03;;;10.80;;
57067;SDS011;43391;47.448;18.904;2023-07-16T14:11:48;19.42;;;13.90;;
57067;SDS011;43391;47.448;18.904;2023-07-16T14:14:14;18.33;;;10.47;;
57067;SDS011;43391;47.448;18.904;2023-07-16T14:16:40;12.68;;;9.18;;
57067;SDS011;43391;47.448;18.904;2023-07-16T14:19:06;15.18;;;7.78;;
57067;SDS011;43391;47.448;18.904;2023-07-16T14:21:32;13.07;;;7.90;;
57067;SDS011;43391;47.448;18.904;2023-07-16T14:23:58;11.65;;;9.10;;
57067;SDS011;43391;47.448;18.904;2023-07-16T14:26:24;14.05;;;8.60;;
57067;SDS011;43391;47.448;18.904;2023-07-16T14:28:49;12.30;;;8.50;;